Time;durP1;ratioP1;P1;durP2;ratioP2;P2;SDS_P1;SDS_P2;PMS_P1;PMS_P2;Temp;Humidity;BMP_temperature;BMP_pressure;BME280_temperature;BME280_humidity;BME280_pressure;Samples;Min_cycle;Max_cycle;Signal;HPM_P1;HPM_P2
2022/06/07 00:00:27;;;;;;;5.50;2.80;;;16.20;94.40;;;;;;10508183;28;20454;-59
2022/06/07 00:05:28;;;;;;;5.65;2.90;;;16.10;94.40;;;;;;10512263;28;20062;-60
2022/06/07 00:10:29;;;;;;;6.68;3.00;;;16.10;94.40;;;;;;10515304;28;20020;-57
2022/06/07 00:15:29;;;;;;;4.30;3.10;;;16.10;94.40;;;;;;10515937;28;20032;-57
2022/06/07 00:20:30;;;;;;;6.57;3.10;;;16.10;94.40;;;;;;10513938;28;20029;-57
2022/06/07 00:25:31;;;;;;;6.35;3.10;;;16.10;94.40;;;;;;10513813;28;20480;-61
2022/06/07 00:30:32;;;;;;;5.00;3.10;;;16.10;94.50;;;;;;10503300;28;20539;-56
2022/06/07 00:35:33;;;;;;;4.15;2.88;;;16.10;94.50;;;;;;10507990;28;20024;-60
2022/06/07 00:40:35;;;;;;;4.57;3.20;;;16.00;94.40;;;;;;10509313;28;20024;-63
2022/06/07 00:45:36;;;;;;;6.38;3.15;;;16.10;94.50;;;;;;10502609;28;20033;-61
2022/06/07 00:50:49;;;;;;;5.30;3.08;;;16.00;94.40;;;;;;10500056;28;20021;-63
2022/06/07 00:55:51;;;;;;;4.05;3.08;;;16.00;94.50;;;;;;10504860;28;20225;-59
2022/06/07 01:00:52;;;;;;;5.25;3.17;;;16.10;94.50;;;;;;10507724;28;20028;-63
2022/06/07 01:05:54;;;;;;;4.82;3.15;;;16.00;94.50;;;;;;10509115;28;20114;-58
2022/06/07 01:10:56;;;;;;;6.95;3.30;;;16.00;94.50;;;;;;10516636;28;20028;-59
2022/06/07 01:16:02;;;;;;;4.40;2.95;;;16.00;94.50;;;;;;10504924;28;20042;-57
2022/06/07 01:21:16;;;;;;;4.05;2.65;;;16.00;94.50;;;;;;10509863;28;20020;-57
2022/06/07 01:26:17;;;;;;;5.10;2.65;;;16.00;94.80;;;;;;10505428;28;20032;-60
2022/06/07 01:31:19;;;;;;;5.63;3.30;;;16.00;94.50;;;;;;10504372;28;20027;-57
2022/06/07 01:36:19;;;;;;;5.07;2.67;;;16.00;94.50;;;;;;10506148;28;20052;-64
2022/06/07 01:46:39;;;;;;;3.80;2.80;;;16.00;94.50;;;;;;10505740;28;20032;-57
2022/06/07 01:51:40;;;;;;;5.18;2.70;;;16.00;94.50;;;;;;10516737;28;20070;-57
2022/06/07 01:56:41;;;;;;;6.75;2.83;;;15.90;94.50;;;;;;10512856;28;20027;-58
2022/06/07 02:01:42;;;;;;;5.90;3.00;;;16.00;94.50;;;;;;10506368;28;20395;-63
2022/06/07 02:06:43;;;;;;;4.25;2.80;;;15.90;94.50;;;;;;10504327;28;20094;-58
2022/06/07 02:11:44;;;;;;;4.72;2.65;;;15.90;94.50;;;;;;10511544;28;20626;-60
2022/06/07 02:16:45;;;;;;;4.15;2.50;;;15.90;94.50;;;;;;10505635;28;20154;-56
2022/06/07 02:21:46;;;;;;;5.75;3.05;;;15.90;94.50;;;;;;10497721;28;20029;-60
2022/06/07 02:26:56;;;;;;;4.50;2.78;;;15.90;94.50;;;;;;10503639;28;20070;-58
2022/06/07 02:32:01;;;;;;;5.20;2.72;;;15.90;94.50;;;;;;10501424;28;20028;-61
2022/06/07 02:37:04;;;;;;;5.68;3.28;;;15.90;94.50;;;;;;10502475;28;20050;-57
2022/06/07 02:42:09;;;;;;;6.28;2.85;;;15.90;94.60;;;;;;10500325;28;20029;-59
2022/06/07 02:47:09;;;;;;;4.07;2.80;;;15.90;94.60;;;;;;10503997;28;20580;-58
2022/06/07 02:52:10;;;;;;;4.13;2.83;;;15.80;94.50;;;;;;10496041;28;20034;-58
2022/06/07 02:57:11;;;;;;;4.05;2.60;;;15.90;94.60;;;;;;10510849;28;20032;-57
2022/06/07 03:02:12;;;;;;;5.75;2.90;;;15.80;94.50;;;;;;10509394;28;20024;-57
2022/06/07 03:07:13;;;;;;;4.00;2.50;;;15.80;94.50;;;;;;10503921;28;20067;-60
2022/06/07 03:12:14;;;;;;;4.68;3.10;;;15.80;94.50;;;;;;10508441;28;20056;-57
2022/06/07 03:17:15;;;;;;;4.57;2.55;;;15.90;94.60;;;;;;10507764;28;20035;-58
2022/06/07 03:22:16;;;;;;;4.82;2.90;;;15.80;94.50;;;;;;10497600;28;20401;-61
2022/06/07 03:27:16;;;;;;;4.13;2.70;;;15.80;94.50;;;;;;10499692;28;20046;-57
2022/06/07 03:32:17;;;;;;;4.20;2.60;;;15.80;94.50;;;;;;10498232;28;20036;-59
2022/06/07 03:37:18;;;;;;;4.93;2.63;;;15.80;94.50;;;;;;10502705;28;20446;-58
2022/06/07 03:42:19;;;;;;;4.30;2.72;;;15.80;94.60;;;;;;10500185;28;20021;-57
2022/06/07 03:47:20;;;;;;;5.47;3.17;;;15.80;94.50;;;;;;10503456;28;20044;-57
2022/06/07 03:52:20;;;;;;;4.30;2.55;;;15.80;94.50;;;;;;10500412;28;20070;-58
2022/06/07 03:57:21;;;;;;;4.38;3.05;;;15.80;94.50;;;;;;10503313;28;20016;-57
2022/06/07 04:02:22;;;;;;;4.47;2.80;;;15.90;94.50;;;;;;10500728;28;20024;-58
2022/06/07 04:12:42;;;;;;;5.47;3.35;;;15.80;94.50;;;;;;10507136;28;20028;-57
2022/06/07 04:17:42;;;;;;;4.18;2.72;;;15.80;94.50;;;;;;10508413;28;20485;-60
2022/06/07 04:22:43;;;;;;;4.78;3.00;;;15.80;94.50;;;;;;10498981;28;20020;-57
2022/06/07 04:27:44;;;;;;;5.25;3.00;;;15.80;94.50;;;;;;10510922;28;20041;-57
2022/06/07 04:32:47;;;;;;;4.68;2.75;;;15.80;94.50;;;;;;10512370;28;20017;-60
2022/06/07 04:37:49;;;;;;;5.93;2.70;;;15.80;94.50;;;;;;10509655;28;20112;-57
2022/06/07 04:42:50;;;;;;;4.63;3.10;;;15.80;94.50;;;;;;10509736;28;20024;-62
2022/06/07 04:47:51;;;;;;;5.28;2.97;;;15.70;94.40;;;;;;10505900;28;20036;-58
2022/06/07 04:52:51;;;;;;;5.57;3.33;;;15.80;94.40;;;;;;10506897;28;20063;-64
2022/06/07 04:57:53;;;;;;;4.68;3.00;;;15.80;94.50;;;;;;10511255;28;20020;-58
2022/06/07 05:02:54;;;;;;;5.90;3.35;;;15.80;94.40;;;;;;10507661;28;20038;-58
2022/06/07 05:07:55;;;;;;;8.48;3.20;;;15.80;94.40;;;;;;10506729;28;20052;-57
2022/06/07 05:12:56;;;;;;;8.43;3.97;;;15.80;94.40;;;;;;10507262;28;20085;-60
2022/06/07 05:17:57;;;;;;;6.65;3.33;;;15.80;94.40;;;;;;10505859;28;20460;-64
2022/06/07 05:22:58;;;;;;;5.53;3.42;;;15.80;94.40;;;;;;10506551;28;20032;-63
2022/06/07 05:27:58;;;;;;;6.05;3.90;;;15.80;94.40;;;;;;10502667;28;20043;-59
2022/06/07 05:32:59;;;;;;;6.20;3.80;;;15.80;94.40;;;;;;10510626;28;20029;-57
2022/06/07 05:38:00;;;;;;;6.07;3.55;;;15.80;94.50;;;;;;10506338;28;20115;-57
2022/06/07 05:43:01;;;;;;;4.65;3.38;;;15.80;94.40;;;;;;10513093;28;20032;-62
2022/06/07 05:48:01;;;;;;;5.05;3.50;;;15.70;94.40;;;;;;10511844;28;20480;-60
2022/06/07 05:53:02;;;;;;;5.53;3.72;;;15.80;94.50;;;;;;10504959;28;20037;-57
2022/06/07 05:58:03;;;;;;;7.57;3.92;;;15.80;94.50;;;;;;10505124;28;20506;-62
2022/06/07 06:03:03;;;;;;;5.18;3.45;;;15.80;94.50;;;;;;10506013;28;20025;-60
2022/06/07 06:13:24;;;;;;;5.45;3.47;;;15.70;94.50;;;;;;10504809;28;20032;-62
2022/06/07 06:18:24;;;;;;;5.45;3.60;;;15.70;94.50;;;;;;10506460;28;20653;-62
2022/06/07 06:23:25;;;;;;;9.30;4.18;;;15.80;94.60;;;;;;10503600;28;20028;-57
2022/06/07 06:28:26;;;;;;;6.55;4.00;;;15.80;94.60;;;;;;10506337;28;20051;-60
2022/06/07 06:33:27;;;;;;;6.80;3.95;;;15.70;94.60;;;;;;10499662;28;20024;-66
2022/06/07 06:38:30;;;;;;;8.10;4.10;;;15.70;94.70;;;;;;10506103;28;20594;-58
2022/06/07 06:43:31;;;;;;;5.82;3.47;;;15.80;94.70;;;;;;10509376;28;20028;-58
2022/06/07 06:48:31;;;;;;;6.20;3.95;;;15.80;94.60;;;;;;10507368;28;20032;-57
2022/06/07 06:53:33;;;;;;;5.57;3.53;;;15.80;94.90;;;;;;10510065;28;20027;-57
2022/06/07 06:58:33;;;;;;;6.97;3.75;;;15.80;94.60;;;;;;10505391;28;20025;-60
2022/06/07 07:03:35;;;;;;;5.93;3.78;;;15.80;94.60;;;;;;10509907;28;20382;-58
2022/06/07 07:08:38;;;;;;;5.07;3.53;;;15.80;94.60;;;;;;10503640;28;20049;-59
2022/06/07 07:13:39;;;;;;;5.68;3.65;;;15.80;94.60;;;;;;10496105;28;20044;-61
2022/06/07 07:18:40;;;;;;;7.55;4.80;;;15.80;94.60;;;;;;10504837;28;20024;-63
2022/06/07 07:23:41;;;;;;;5.75;3.25;;;15.80;94.60;;;;;;10511742;28;20043;-61
2022/06/07 07:28:44;;;;;;;5.40;4.07;;;15.80;94.60;;;;;;10507487;28;20035;-57
2022/06/07 07:33:45;;;;;;;6.15;3.65;;;15.80;94.60;;;;;;10500798;28;20031;-58
2022/06/07 07:38:46;;;;;;;5.72;3.60;;;15.80;94.50;;;;;;10507104;28;20520;-60
2022/06/07 07:43:48;;;;;;;6.97;4.07;;;15.80;94.50;;;;;;10494162;28;20017;-60
2022/06/07 07:48:49;;;;;;;5.47;3.35;;;15.80;94.50;;;;;;10505556;28;20047;-58
2022/06/07 07:53:55;;;;;;;6.07;3.63;;;15.80;94.50;;;;;;10506423;28;20019;-59
2022/06/07 07:58:57;;;;;;;9.07;4.63;;;15.80;94.40;;;;;;10505921;28;20545;-57
2022/06/07 08:04:00;;;;;;;4.20;3.40;;;15.80;94.40;;;;;;10505080;28;20053;-56
2022/06/07 08:09:04;;;;;;;5.10;3.50;;;15.80;94.40;;;;;;10514122;28;20164;-56
2022/06/07 08:14:07;;;;;;;5.28;3.70;;;15.90;94.40;;;;;;10518954;28;20052;-63
2022/06/07 08:19:08;;;;;;;8.02;3.78;;;15.80;94.30;;;;;;10512789;28;20529;-62
2022/06/07 08:24:09;;;;;;;6.68;3.55;;;15.90;94.40;;;;;;10508211;28;20036;-59
2022/06/07 08:29:11;;;;;;;5.63;3.65;;;15.80;94.30;;;;;;10508452;28;20056;-58
2022/06/07 08:39:35;;;;;;;5.47;3.80;;;15.90;94.30;;;;;;10518255;28;20590;-60
2022/06/07 08:44:50;;;;;;;5.25;3.70;;;15.90;94.20;;;;;;10512050;28;20020;-60
2022/06/07 08:49:54;;;;;;;5.03;3.58;;;15.90;94.20;;;;;;10515135;28;20036;-57
2022/06/07 08:54:58;;;;;;;5.13;3.22;;;15.90;94.20;;;;;;10511493;28;20473;-62
2022/06/07 09:00:20;;;;;;;5.30;3.47;;;15.90;94.20;;;;;;10512533;28;20021;-61
2022/06/07 09:05:20;;;;;;;5.28;3.38;;;15.90;94.20;;;;;;10505132;28;20053;-62
2022/06/07 09:15:40;;;;;;;5.90;3.83;;;15.90;94.10;;;;;;10514886;28;20036;-62
2022/06/07 09:20:49;;;;;;;7.45;3.38;;;15.90;94.10;;;;;;10498291;28;20024;-59
2022/06/07 09:25:52;;;;;;;5.95;3.42;;;16.00;94.00;;;;;;10506784;28;20043;-58
2022/06/07 09:31:06;;;;;;;5.30;3.85;;;16.10;93.90;;;;;;10510181;28;20583;-66
2022/06/07 09:36:17;;;;;;;5.43;3.47;;;16.10;93.80;;;;;;10505378;28;20154;-62
2022/06/07 09:41:40;;;;;;;6.38;3.20;;;16.10;93.80;;;;;;10508043;28;20028;-62
2022/06/07 09:46:43;;;;;;;4.93;3.60;;;16.10;93.80;;;;;;10509983;28;20435;-61
2022/06/07 09:51:44;;;;;;;5.40;3.13;;;16.10;93.80;;;;;;10508304;28;20020;-63
2022/06/07 09:57:34;;;;;;;5.57;3.17;;;16.10;93.80;;;;;;10503897;28;20492;-59
2022/06/07 10:02:50;;;;;;;5.18;2.83;;;16.10;93.70;;;;;;10413369;28;21114;-60
2022/06/07 10:07:56;;;;;;;5.25;3.45;;;16.10;93.70;;;;;;10492498;28;20048;-59
2022/06/07 10:13:06;;;;;;;7.60;3.20;;;16.10;93.70;;;;;;10506726;28;20392;-59
2022/06/07 10:18:13;;;;;;;5.07;2.95;;;16.10;93.70;;;;;;10503719;28;20035;-63
2022/06/07 10:23:29;;;;;;;5.20;2.78;;;16.10;93.70;;;;;;10502989;28;20401;-66
2022/06/07 10:29:01;;;;;;;5.35;2.90;;;16.10;93.70;;;;;;10498526;28;20028;-64
2022/06/07 10:34:07;;;;;;;6.03;2.90;;;16.10;93.70;;;;;;10501071;28;20036;-65
2022/06/07 10:39:11;;;;;;;4.15;2.33;;;16.10;93.70;;;;;;10510618;28;20103;-64
2022/06/07 10:44:37;;;;;;;5.93;3.20;;;16.10;93.70;;;;;;10509331;28;20519;-61
2022/06/07 10:49:52;;;;;;;3.83;2.65;;;16.10;93.90;;;;;;10504815;28;20590;-59
2022/06/07 10:55:16;;;;;;;6.07;2.92;;;16.10;93.80;;;;;;10499163;28;20560;-60
2022/06/07 11:00:49;;;;;;;4.75;3.42;;;16.20;93.70;;;;;;10512899;28;20111;-58
2022/06/07 11:11:15;;;;;;;7.15;2.90;;;16.30;93.60;;;;;;10510625;28;20021;-62
2022/06/07 11:16:36;;;;;;;5.57;2.75;;;16.40;93.40;;;;;;10503707;28;20028;-64
2022/06/07 11:21:41;;;;;;;6.00;3.20;;;16.60;93.30;;;;;;10498836;28;20032;-62
2022/06/07 11:26:50;;;;;;;4.47;3.42;;;16.70;93.20;;;;;;10500914;28;20032;-64
2022/06/07 11:31:51;;;;;;;3.50;2.53;;;16.70;93.00;;;;;;10503017;28;20610;-64
2022/06/07 11:37:15;;;;;;;5.85;3.10;;;16.80;93.00;;;;;;10503973;28;20029;-58
2022/06/07 11:42:36;;;;;;;5.72;2.90;;;16.70;92.90;;;;;;10502438;28;20040;-59
2022/06/07 11:47:43;;;;;;;3.42;2.58;;;16.90;92.90;;;;;;10513231;28;20040;-61
2022/06/07 11:53:19;;;;;;;8.52;2.70;;;16.90;92.80;;;;;;10515778;28;20040;-58
2022/06/07 11:58:53;;;;;;;6.57;3.22;;;17.10;92.70;;;;;;10509340;28;20043;-60
2022/06/07 12:04:28;;;;;;;3.38;2.45;;;17.10;92.60;;;;;;10521357;28;20036;-63
2022/06/07 12:09:31;;;;;;;5.45;2.90;;;17.20;92.50;;;;;;10473668;28;20043;-61
2022/06/07 12:14:38;;;;;;;4.40;2.60;;;17.10;92.50;;;;;;10516007;28;20038;-62
2022/06/07 12:19:45;;;;;;;8.45;2.53;;;17.20;92.50;;;;;;10520356;28;20029;-64
2022/06/07 12:24:55;;;;;;;4.25;2.80;;;17.20;92.50;;;;;;10506534;28;20124;-60
2022/06/07 12:30:02;;;;;;;4.53;2.70;;;17.30;92.50;;;;;;10513711;28;20532;-64
2022/06/07 12:35:20;;;;;;;4.43;2.90;;;17.40;92.40;;;;;;10512548;28;20039;-63
2022/06/07 12:40:26;;;;;;;4.18;2.53;;;17.40;92.30;;;;;;10512653;28;20020;-59
2022/06/07 12:45:36;;;;;;;4.55;2.60;;;17.50;92.30;;;;;;10514633;28;20048;-67
2022/06/07 12:50:40;;;;;;;4.55;2.60;;;17.50;92.30;;;;;;10504013;28;20028;-64
2022/06/07 12:55:42;;;;;;;6.50;2.80;;;17.60;92.30;;;;;;10512829;28;20046;-66
2022/06/07 13:00:45;;;;;;;4.53;3.00;;;17.70;92.20;;;;;;10518369;28;20035;-62
2022/06/07 13:05:46;;;;;;;4.97;2.85;;;17.70;92.10;;;;;;10512040;28;20479;-64
2022/06/07 13:10:47;;;;;;;3.95;2.65;;;17.80;92.10;;;;;;10512047;28;20024;-61
2022/06/07 13:16:21;;;;;;;3.75;2.67;;;17.80;92.10;;;;;;10502964;28;20028;-63
2022/06/07 13:21:35;;;;;;;5.07;2.78;;;17.90;92.10;;;;;;10510559;28;20047;-65
2022/06/07 13:26:47;;;;;;;6.10;2.95;;;17.90;92.00;;;;;;10511899;28;20137;-61
2022/06/07 13:31:54;;;;;;;3.60;2.40;;;18.00;92.00;;;;;;10506259;28;20027;-57
2022/06/07 13:37:10;;;;;;;5.43;3.03;;;18.10;92.00;;;;;;10499596;28;20040;-67
2022/06/07 13:42:19;;;;;;;6.30;2.83;;;18.10;91.90;;;;;;10504450;28;20067;-57
2022/06/07 13:47:21;;;;;;;;;;;18.10;91.90;;;;;;10509453;28;20089;-61
2022/06/07 13:57:47;;;;;;;6.13;2.60;;;18.10;92.10;;;;;;10511971;28;20395;-62
2022/06/07 14:02:48;;;;;;;3.88;2.70;;;18.10;92.10;;;;;;10510253;28;20038;-58
2022/06/07 14:07:49;;;;;;;4.65;2.97;;;18.10;92.10;;;;;;10506935;28;20514;-58
2022/06/07 14:12:50;;;;;;;5.13;2.72;;;18.10;92.10;;;;;;10501372;28;20023;-61
2022/06/07 14:17:51;;;;;;;3.42;2.80;;;18.30;92.00;;;;;;10514541;28;20385;-60
2022/06/07 14:22:54;;;;;;;6.50;2.92;;;18.50;91.80;;;;;;10506625;28;20029;-65
2022/06/07 14:27:55;;;;;;;4.97;3.10;;;18.70;91.60;;;;;;10502647;28;20041;-61
2022/06/07 14:32:57;;;;;;;6.50;3.53;;;18.80;91.40;;;;;;10508291;28;20046;-65
2022/06/07 14:38:00;;;;;;;5.35;2.85;;;18.90;91.30;;;;;;10519095;28;20032;-62
2022/06/07 14:43:01;;;;;;;4.38;2.75;;;19.10;91.20;;;;;;10510077;28;20028;-59
2022/06/07 14:48:05;;;;;;;5.03;3.17;;;19.20;91.10;;;;;;10509373;28;20052;-64
2022/06/07 14:53:08;;;;;;;5.55;2.80;;;19.30;90.90;;;;;;10507035;28;20094;-63
2022/06/07 14:58:09;;;;;;;6.00;3.05;;;19.40;90.90;;;;;;10507930;28;20036;-63
2022/06/07 15:03:11;;;;;;;6.75;2.72;;;19.50;90.80;;;;;;10500646;28;20078;-65
2022/06/07 15:08:16;;;;;;;4.03;2.60;;;19.60;90.70;;;;;;10509206;28;20527;-58
2022/06/07 15:13:23;;;;;;;4.97;3.08;;;19.70;90.70;;;;;;10507784;28;20020;-65
2022/06/07 15:18:34;;;;;;;4.70;2.90;;;19.70;90.70;;;;;;10502218;28;20865;-59
2022/06/07 15:23:36;;;;;;;4.68;3.08;;;19.80;90.70;;;;;;10501751;28;20032;-63
2022/06/07 15:28:37;;;;;;;4.57;2.75;;;19.90;90.60;;;;;;10502380;28;20597;-66
2022/06/07 15:33:38;;;;;;;5.22;3.15;;;20.00;90.50;;;;;;10499241;28;20024;-59
2022/06/07 15:38:44;;;;;;;3.72;2.88;;;20.00;90.50;;;;;;10513927;28;20035;-60
2022/06/07 15:43:45;;;;;;;6.53;3.03;;;20.10;90.40;;;;;;10492678;28;20024;-61
2022/06/07 15:48:46;;;;;;;7.22;2.83;;;20.20;90.40;;;;;;10494543;28;20489;-58
2022/06/07 15:53:47;;;;;;;3.75;2.50;;;20.20;90.30;;;;;;10494381;28;20032;-61
2022/06/07 15:59:03;;;;;;;4.50;2.78;;;20.20;90.40;;;;;;10501854;28;20044;-58
2022/06/07 16:04:07;;;;;;;6.85;2.88;;;20.20;90.40;;;;;;10505447;28;20035;-59
2022/06/07 16:09:10;;;;;;;4.53;2.78;;;20.20;90.50;;;;;;10511590;28;20042;-62
2022/06/07 16:14:12;;;;;;;5.22;2.67;;;20.20;90.70;;;;;;10501632;28;20024;-62
2022/06/07 16:19:12;;;;;;;4.03;2.78;;;20.00;90.80;;;;;;10500096;28;20032;-62
2022/06/07 16:24:13;;;;;;;6.80;2.85;;;20.00;90.90;;;;;;10503542;28;20024;-59
2022/06/07 16:34:33;;;;;;;4.28;2.78;;;19.80;91.10;;;;;;10509260;28;20670;-61
2022/06/07 16:39:36;;;;;;;4.32;2.60;;;19.80;91.30;;;;;;10519689;28;20115;-59
2022/06/07 16:44:36;;;;;;;4.97;2.70;;;19.80;91.40;;;;;;10510716;28;20093;-57
2022/06/07 16:49:37;;;;;;;4.03;2.60;;;19.70;91.50;;;;;;10510079;28;20032;-56
2022/06/07 16:54:38;;;;;;;3.95;2.65;;;19.70;91.60;;;;;;10510618;28;20097;-62
2022/06/07 16:59:39;;;;;;;3.42;2.53;;;19.60;91.70;;;;;;10519497;28;20038;-59
2022/06/07 17:04:40;;;;;;;4.00;2.58;;;19.60;91.70;;;;;;10515488;28;20054;-60
2022/06/07 17:09:41;;;;;;;4.68;3.10;;;19.60;91.80;;;;;;10516814;28;20493;-62
2022/06/07 17:14:42;;;;;;;3.80;2.45;;;19.50;91.70;;;;;;10517740;28;20047;-57
2022/06/07 17:19:42;;;;;;;5.45;2.80;;;19.50;91.80;;;;;;10511486;28;20107;-58
2022/06/07 17:24:44;;;;;;;3.85;2.38;;;19.40;91.80;;;;;;10508724;28;20015;-61
2022/06/07 17:29:45;;;;;;;5.47;3.00;;;19.40;91.80;;;;;;10515389;28;20385;-61
2022/06/07 17:34:46;;;;;;;3.90;2.75;;;19.40;91.80;;;;;;10511641;28;20028;-60
2022/06/07 17:39:47;;;;;;;4.78;2.72;;;19.30;91.80;;;;;;10516245;28;20036;-62
2022/06/07 17:44:48;;;;;;;4.25;2.88;;;19.30;91.80;;;;;;10506511;28;20072;-59
2022/06/07 17:49:48;;;;;;;3.20;2.70;;;19.30;91.90;;;;;;10510867;28;20055;-60
2022/06/07 17:54:49;;;;;;;5.70;2.92;;;19.20;91.80;;;;;;10517347;28;20032;-58
2022/06/07 17:59:50;;;;;;;5.93;3.08;;;19.20;91.90;;;;;;10514100;28;20032;-57
2022/06/07 18:04:51;;;;;;;3.95;2.50;;;19.20;91.90;;;;;;10501706;28;20058;-56
2022/06/07 18:09:52;;;;;;;4.53;2.75;;;19.10;92.00;;;;;;10511773;28;20051;-60
2022/06/07 18:14:52;;;;;;;4.18;2.80;;;19.10;92.00;;;;;;10513515;28;20086;-59
2022/06/07 18:19:54;;;;;;;4.15;2.65;;;19.00;92.10;;;;;;10508616;28;20040;-57
2022/06/07 18:24:55;;;;;;;3.65;2.80;;;19.00;92.20;;;;;;10503152;28;20043;-57
2022/06/07 18:29:56;;;;;;;3.08;2.33;;;19.00;92.20;;;;;;10502357;28;20392;-61
2022/06/07 18:34:58;;;;;;;4.00;2.67;;;18.90;92.30;;;;;;10506136;28;20032;-63
2022/06/07 18:39:58;;;;;;;3.35;2.78;;;18.90;92.30;;;;;;10509737;28;20032;-57
2022/06/07 18:44:59;;;;;;;4.47;2.80;;;18.80;92.30;;;;;;10500748;28;20044;-59
2022/06/07 18:50:01;;;;;;;4.88;2.60;;;18.80;92.40;;;;;;10499329;28;20020;-60
2022/06/07 18:55:02;;;;;;;4.40;2.95;;;18.80;92.50;;;;;;10497943;28;20059;-60
2022/06/07 19:00:09;;;;;;;4.30;2.47;;;18.70;92.40;;;;;;10506626;28;20113;-57
2022/06/07 19:05:15;;;;;;;4.47;2.40;;;18.70;92.50;;;;;;10503217;28;20045;-59
2022/06/07 19:10:18;;;;;;;3.80;2.60;;;18.70;92.50;;;;;;10506101;28;20040;-61
2022/06/07 19:15:22;;;;;;;3.40;2.70;;;18.60;92.50;;;;;;10502089;28;20408;-58
2022/06/07 19:20:23;;;;;;;4.30;2.85;;;18.60;92.50;;;;;;10498196;28;20020;-62
2022/06/07 19:25:24;;;;;;;4.78;2.67;;;18.60;92.50;;;;;;10504833;28;20040;-58
2022/06/07 19:30:26;;;;;;;4.28;2.60;;;18.50;92.50;;;;;;10503498;28;20020;-62
2022/06/07 19:35:30;;;;;;;5.22;3.13;;;18.50;92.50;;;;;;10493401;28;20028;-59
2022/06/07 19:40:31;;;;;;;4.70;2.58;;;18.40;92.50;;;;;;10507984;28;20015;-63
2022/06/07 19:45:33;;;;;;;3.67;2.47;;;18.40;92.60;;;;;;10498324;28;20051;-65
2022/06/07 19:50:37;;;;;;;4.07;2.58;;;18.40;92.60;;;;;;10502639;28;20040;-61
2022/06/07 19:55:38;;;;;;;6.57;3.00;;;18.30;92.60;;;;;;10498714;28;20071;-59
2022/06/07 20:00:40;;;;;;;3.28;2.33;;;18.30;92.70;;;;;;10501882;28;20017;-61
2022/06/07 20:05:42;;;;;;;4.32;2.25;;;18.20;92.70;;;;;;10513535;28;20080;-58
2022/06/07 20:10:44;;;;;;;4.90;2.92;;;18.20;92.70;;;;;;10504899;28;20539;-57
2022/06/07 20:15:45;;;;;;;4.68;2.83;;;18.20;92.80;;;;;;10501902;28;20024;-58
2022/06/07 20:20:46;;;;;;;6.72;3.53;;;18.10;92.80;;;;;;10509113;28;20031;-58
2022/06/07 20:25:47;;;;;;;3.58;2.47;;;18.10;92.80;;;;;;10506014;28;20039;-58
2022/06/07 20:30:51;;;;;;;4.70;2.70;;;18.10;92.80;;;;;;10513204;28;20031;-62
2022/06/07 20:35:52;;;;;;;3.90;2.80;;;18.00;92.90;;;;;;10512003;28;20036;-57
2022/06/07 20:40:54;;;;;;;3.28;2.63;;;18.00;93.00;;;;;;10504677;28;20036;-64
2022/06/07 20:45:55;;;;;;;4.68;2.78;;;18.00;93.00;;;;;;10508781;28;20048;-63
2022/06/07 20:50:56;;;;;;;5.35;2.75;;;17.90;93.00;;;;;;10500200;28;20024;-63
2022/06/07 20:56:01;;;;;;;5.00;2.80;;;17.90;93.00;;;;;;10508409;28;20063;-60
2022/06/07 21:01:02;;;;;;;5.65;2.72;;;17.90;93.00;;;;;;10503836;28;20493;-61
2022/06/07 21:06:04;;;;;;;5.03;3.10;;;17.80;93.00;;;;;;10508623;28;20045;-64
2022/06/07 21:11:04;;;;;;;4.15;3.08;;;17.80;93.00;;;;;;10508740;28;20031;-59
2022/06/07 21:16:05;;;;;;;5.80;3.25;;;17.80;93.00;;;;;;10514569;28;20028;-64
2022/06/07 21:21:06;;;;;;;4.13;2.60;;;17.70;93.00;;;;;;10512803;28;20020;-61
2022/06/07 21:26:07;;;;;;;5.45;2.92;;;17.70;93.00;;;;;;10512196;28;20674;-61
2022/06/07 21:31:07;;;;;;;5.25;3.30;;;17.70;93.00;;;;;;10499035;28;20574;-62
2022/06/07 21:36:09;;;;;;;4.97;3.13;;;17.60;93.00;;;;;;10509783;28;20086;-57
2022/06/07 21:41:10;;;;;;;6.18;3.40;;;17.60;93.00;;;;;;10511628;28;20031;-64
2022/06/07 21:46:11;;;;;;;5.93;2.95;;;17.60;93.00;;;;;;10503204;28;20710;-57
2022/06/07 21:51:11;;;;;;;5.95;3.08;;;17.50;93.00;;;;;;10510320;28;20048;-60
2022/06/07 21:56:12;;;;;;;4.60;3.28;;;17.50;93.00;;;;;;10518051;28;20036;-64
2022/06/07 22:01:13;;;;;;;5.30;3.22;;;17.50;93.00;;;;;;10505452;28;20020;-60
2022/06/07 22:06:14;;;;;;;5.57;3.40;;;17.40;92.90;;;;;;10510082;28;20044;-57
2022/06/07 22:11:15;;;;;;;5.25;3.67;;;17.40;93.20;;;;;;10498261;28;20027;-64
2022/06/07 22:16:17;;;;;;;5.03;3.35;;;17.30;92.90;;;;;;10498120;28;20116;-57
2022/06/07 22:21:17;;;;;;;5.07;3.15;;;17.30;92.90;;;;;;10515393;28;20024;-61
2022/06/07 22:26:18;;;;;;;6.50;4.10;;;17.30;92.90;;;;;;10507338;28;20041;-59
2022/06/07 22:31:19;;;;;;;5.10;3.10;;;17.20;92.90;;;;;;10506741;28;20028;-63
2022/06/07 22:36:20;;;;;;;5.03;3.63;;;17.20;93.00;;;;;;10496617;28;20020;-58
2022/06/07 22:41:21;;;;;;;4.65;3.08;;;17.20;93.00;;;;;;10506295;28;20018;-57
2022/06/07 22:46:21;;;;;;;7.05;3.50;;;17.10;92.90;;;;;;10510665;28;20054;-63
2022/06/07 22:51:22;;;;;;;4.97;3.33;;;17.10;92.90;;;;;;10499136;28;20115;-63
2022/06/07 22:56:24;;;;;;;6.07;3.50;;;17.10;92.90;;;;;;10509389;28;20031;-58
2022/06/07 23:01:28;;;;;;;5.13;3.08;;;17.00;92.90;;;;;;10501034;28;20032;-60
2022/06/07 23:06:33;;;;;;;4.88;3.40;;;17.00;92.90;;;;;;10510426;28;20055;-62
2022/06/07 23:11:34;;;;;;;6.30;3.30;;;17.00;92.90;;;;;;10504868;28;20024;-62
2022/06/07 23:21:54;;;;;;;6.10;3.20;;;16.90;92.90;;;;;;10506336;28;20029;-57
2022/06/07 23:26:54;;;;;;;5.25;3.25;;;16.90;92.90;;;;;;10509325;28;20056;-59
2022/06/07 23:31:55;;;;;;;3.95;3.00;;;16.80;92.90;;;;;;10509264;28;20093;-57
2022/06/07 23:36:56;;;;;;;4.70;3.22;;;16.80;92.90;;;;;;10512644;28;20045;-59
2022/06/07 23:41:58;;;;;;;4.80;3.13;;;16.80;92.90;;;;;;10513761;28;20161;-59
2022/06/07 23:47:04;;;;;;;4.68;2.88;;;16.80;92.90;;;;;;10511582;28;20090;-62
2022/06/07 23:52:10;;;;;;;5.72;3.33;;;16.70;92.80;;;;;;10515202;28;20500;-58
2022/06/07 23:57:14;;;;;;;4.40;3.03;;;16.70;92.80;;;;;;10513189;28;20061;-63
